Time;durP1;ratioP1;P1;durP2;ratioP2;P2;SDS_P1;SDS_P2;PMS_P1;PMS_P2;Temp;Humidity;BMP_temperature;BMP_pressure;BME280_temperature;BME280_humidity;BME280_pressure;Samples;Min_cycle;Max_cycle;Signal;HPM_P1;HPM_P2
2020/12/27 00:01:05;;;;;;;6.30;1.53;;;7.90;99.90;;;;;;4937724;28;20225;-93
2020/12/27 00:03:36;;;;;;;10.83;1.70;;;7.80;99.90;;;;;;4938003;29;20266;-96
2020/12/27 00:06:08;;;;;;;9.50;1.90;;;7.80;99.90;;;;;;4937613;28;20285;-96
2020/12/27 00:08:39;;;;;;;9.60;2.37;;;7.80;99.90;;;;;;4938470;28;20226;-96
2020/12/27 00:11:10;;;;;;;5.83;1.77;;;7.80;99.90;;;;;;4926197;29;20251;-96
2020/12/27 00:13:41;;;;;;;8.80;1.87;;;7.80;99.90;;;;;;4953802;28;20652;-96
2020/12/27 00:16:13;;;;;;;9.80;2.57;;;7.80;99.90;;;;;;4957800;28;20216;-96
2020/12/27 00:18:43;;;;;;;7.13;1.90;;;7.80;99.90;;;;;;4955566;28;20502;-96
2020/12/27 00:21:17;;;;;;;7.23;1.60;;;7.70;99.90;;;;;;4940761;29;20295;-96
2020/12/27 00:23:48;;;;;;;6.50;2.17;;;7.70;99.90;;;;;;4941422;29;20643;-94
2020/12/27 00:26:19;;;;;;;5.83;1.63;;;7.70;99.90;;;;;;4940416;29;20247;-96
2020/12/27 00:28:53;;;;;;;6.43;2.57;;;7.70;99.90;;;;;;4931766;29;20221;-96
2020/12/27 00:31:23;;;;;;;11.50;2.10;;;7.70;99.90;;;;;;4924106;29;20236;-96
2020/12/27 00:33:57;;;;;;;8.17;1.17;;;7.70;99.90;;;;;;4924255;29;20216;-94
2020/12/27 00:36:30;;;;;;;9.37;2.33;;;7.70;99.90;;;;;;4924380;29;20209;-95
2020/12/27 00:39:05;;;;;;;3.80;1.00;;;7.70;99.90;;;;;;4923429;29;20242;-95
2020/12/27 00:41:37;;;;;;;4.77;1.33;;;7.70;99.90;;;;;;4921952;29;20236;-95
2020/12/27 00:44:08;;;;;;;3.43;1.27;;;7.60;99.90;;;;;;4922474;28;20217;-95
2020/12/27 00:46:39;;;;;;;6.13;1.90;;;7.50;99.90;;;;;;4915783;29;20268;-95
2020/12/27 00:49:09;;;;;;;5.57;1.30;;;7.40;99.90;;;;;;4921433;29;20711;-94
2020/12/27 00:51:42;;;;;;;4.30;1.10;;;7.30;99.90;;;;;;4920185;29;20324;-96
2020/12/27 00:54:14;;;;;;;6.47;1.60;;;7.30;99.90;;;;;;4921280;29;20683;-94
2020/12/27 00:56:51;;;;;;;10.03;2.73;;;7.30;99.90;;;;;;4919686;29;20295;-94
2020/12/27 00:59:21;;;;;;;9.83;2.10;;;7.20;99.90;;;;;;4920465;29;20213;-95
2020/12/27 01:01:56;;;;;;;12.57;1.93;;;7.20;99.90;;;;;;4920192;29;20236;-96
2020/12/27 01:04:26;;;;;;;6.50;1.47;;;7.20;99.90;;;;;;4927539;29;20201;-96
2020/12/27 01:07:00;;;;;;;6.90;1.47;;;7.10;99.90;;;;;;4927249;29;20212;-96
2020/12/27 01:09:31;;;;;;;7.20;1.73;;;7.10;99.90;;;;;;4909638;29;20237;-96
2020/12/27 01:12:02;;;;;;;8.27;2.10;;;7.10;99.90;;;;;;4946902;29;20372;-96
2020/12/27 01:14:33;;;;;;;13.87;1.93;;;7.10;99.90;;;;;;4948280;29;20215;-96
2020/12/27 01:17:04;;;;;;;8.20;2.83;;;7.00;99.90;;;;;;4946854;29;20275;-96
2020/12/27 01:19:35;;;;;;;7.23;1.83;;;6.90;99.90;;;;;;4947547;29;20216;-96
2020/12/27 01:22:07;;;;;;;5.53;1.53;;;6.80;99.90;;;;;;4968150;28;20260;-96
2020/12/27 01:24:42;;;;;;;9.63;2.43;;;6.80;99.90;;;;;;4970822;28;20259;-96
2020/12/27 01:27:14;;;;;;;6.00;1.70;;;6.80;99.90;;;;;;4972775;28;20300;-96
2020/12/27 01:29:46;;;;;;;8.00;1.87;;;6.70;99.90;;;;;;4953388;29;20216;-96
2020/12/27 01:32:18;;;;;;;7.73;1.80;;;6.60;99.90;;;;;;4951338;29;20235;-96
2020/12/27 01:34:48;;;;;;;4.97;2.00;;;6.60;99.90;;;;;;5596758;23;20227;-94
2020/12/27 01:37:33;;;;;;;8.33;1.60;;;6.60;99.90;;;;;;5376018;23;20274;-96
2020/12/27 01:40:06;;;;;;;8.90;1.50;;;6.50;99.90;;;;;;4964659;28;20285;-95
2020/12/27 01:42:39;;;;;;;9.70;2.13;;;6.50;99.90;;;;;;4966250;28;20219;-93
2020/12/27 02:09:29;;;;;;;5.67;1.43;;;6.80;99.90;;;;;;4925860;29;20224;-92
2020/12/27 02:12:07;;;;;;;8.53;1.37;;;6.80;99.90;;;;;;4932422;29;20232;-96
2020/12/27 02:14:40;;;;;;;4.67;1.33;;;6.70;99.90;;;;;;4936505;29;20205;-96
2020/12/27 02:19:47;;;;;;;6.27;1.50;;;6.60;99.90;;;;;;5403927;23;20242;-95
2020/12/27 02:22:18;;;;;;;6.37;1.67;;;6.60;99.90;;;;;;4973845;28;20219;-96
2020/12/27 02:24:53;;;;;;;3.70;1.53;;;6.50;99.90;;;;;;4979878;28;20197;-96
2020/12/27 02:27:24;;;;;;;6.73;1.70;;;6.50;99.90;;;;;;5599672;23;20238;-95
2020/12/27 02:32:35;;;;;;;8.93;2.10;;;6.30;99.90;;;;;;5235488;23;20281;-96
2020/12/27 02:35:06;;;;;;;6.63;1.83;;;6.30;99.90;;;;;;5088828;23;20819;-96
2020/12/27 02:37:39;;;;;;;4.03;1.47;;;6.20;99.90;;;;;;4973604;28;20208;-94
2020/12/27 02:40:14;;;;;;;8.60;2.00;;;6.20;99.90;;;;;;5261573;23;20244;-96
2020/12/27 02:42:47;;;;;;;9.03;2.43;;;6.20;99.90;;;;;;4928749;29;20213;-96
2020/12/27 02:47:55;;;;;;;6.10;1.80;;;6.30;99.90;;;;;;5455093;23;20218;-96
2020/12/27 03:03:48;;;;;;;9.97;2.07;;;6.30;99.90;;;;;;4955629;28;20220;-96
2020/12/27 03:09:06;;;;;;;4.43;1.67;;;6.20;99.90;;;;;;5209956;23;20247;-92
2020/12/27 03:11:37;;;;;;;6.90;2.00;;;6.20;99.90;;;;;;4958820;28;20267;-95
2020/12/27 03:14:09;;;;;;;9.33;2.17;;;6.10;99.90;;;;;;4963731;28;20239;-96
2020/12/27 03:16:39;;;;;;;3.63;1.90;;;6.10;99.90;;;;;;4958979;28;20211;-95
2020/12/27 03:19:11;;;;;;;5.53;1.93;;;6.10;99.90;;;;;;4959137;28;20226;-96
2020/12/27 03:21:42;;;;;;;9.37;2.50;;;6.10;99.90;;;;;;4973582;28;20200;-96
2020/12/27 03:24:16;;;;;;;8.17;1.80;;;6.10;99.90;;;;;;4979358;28;20227;-96
2020/12/27 03:26:54;;;;;;;7.23;1.90;;;6.20;99.90;;;;;;5124251;23;20306;-96
2020/12/27 03:29:28;;;;;;;8.97;2.50;;;6.20;99.90;;;;;;4972622;28;20183;-96
2020/12/27 03:31:58;;;;;;;4.07;1.60;;;6.20;99.90;;;;;;4968757;28;20246;-96
2020/12/27 03:48:26;;;;;;;7.97;2.20;;;6.30;99.90;;;;;;5303766;23;20242;-96
2020/12/27 04:18:02;;;;;;;5.40;2.37;;;6.20;99.90;;;;;;4949896;29;20223;-96
2020/12/27 04:20:33;;;;;;;6.03;2.17;;;6.20;99.90;;;;;;4933351;29;20209;-96
2020/12/27 04:23:05;;;;;;;8.43;2.27;;;6.20;99.90;;;;;;4948725;29;20280;-96
2020/12/27 04:25:41;;;;;;;7.30;2.40;;;6.20;99.90;;;;;;4945204;29;20208;-96
2020/12/27 04:28:12;;;;;;;10.90;2.20;;;6.30;99.90;;;;;;4958199;29;20295;-96
2020/12/27 04:30:46;;;;;;;5.60;2.07;;;6.30;99.90;;;;;;5130170;23;20227;-96
2020/12/27 04:33:18;;;;;;;7.67;2.00;;;6.30;99.90;;;;;;4974869;28;20219;-96
2020/12/27 04:35:51;;;;;;;4.23;1.97;;;6.30;99.90;;;;;;4972137;29;20330;-96
2020/12/27 04:38:27;;;;;;;4.83;1.93;;;6.30;99.90;;;;;;4972824;28;20203;-96
2020/12/27 04:40:58;;;;;;;8.27;2.10;;;6.20;99.90;;;;;;4968622;28;20234;-96
2020/12/27 04:43:30;;;;;;;5.97;2.40;;;6.20;99.90;;;;;;4968280;28;20239;-96
2020/12/27 04:46:04;;;;;;;8.97;3.23;;;6.30;99.90;;;;;;4962937;29;20295;-94
2020/12/27 04:48:39;;;;;;;9.80;3.43;;;6.20;99.90;;;;;;4964849;28;20208;-96
2020/12/27 04:51:11;;;;;;;6.50;3.17;;;6.20;99.90;;;;;;4968766;28;20227;-94
2020/12/27 04:53:42;;;;;;;11.20;3.90;;;6.30;99.90;;;;;;4961025;28;20318;-95
2020/12/27 04:56:18;;;;;;;7.00;2.37;;;6.30;99.90;;;;;;4966608;28;20227;-95
2020/12/27 04:58:50;;;;;;;8.70;2.30;;;6.30;99.90;;;;;;4956012;28;20207;-94
2020/12/27 05:01:21;;;;;;;5.70;1.80;;;6.30;99.90;;;;;;4966146;28;20238;-95
2020/12/27 05:03:55;;;;;;;6.70;2.20;;;6.30;99.90;;;;;;4963778;28;20214;-95
2020/12/27 05:06:27;;;;;;;3.37;1.93;;;6.30;99.90;;;;;;4966049;28;20310;-93
2020/12/27 05:09:01;;;;;;;5.47;2.37;;;6.30;99.90;;;;;;4966758;28;20268;-95
2020/12/27 05:11:31;;;;;;;8.43;2.17;;;6.30;99.90;;;;;;4972867;28;20286;-94
2020/12/27 05:14:02;;;;;;;6.43;2.37;;;6.30;99.90;;;;;;4974586;28;20208;-94
2020/12/27 05:16:33;;;;;;;4.37;2.47;;;6.30;99.90;;;;;;4975175;28;20207;-94
2020/12/27 05:19:06;;;;;;;6.20;2.37;;;6.30;99.90;;;;;;4974420;28;20672;-93
2020/12/27 05:21:39;;;;;;;9.37;1.83;;;6.30;99.90;;;;;;4979547;28;20206;-94
2020/12/27 05:24:10;;;;;;;7.20;1.93;;;6.30;99.90;;;;;;4968109;28;20215;-92
2020/12/27 05:26:43;;;;;;;10.13;2.13;;;6.30;99.90;;;;;;4960749;28;20238;-92
2020/12/27 05:29:17;;;;;;;6.80;2.47;;;6.30;99.90;;;;;;4960698;28;20207;-93
2020/12/27 05:31:51;;;;;;;6.57;2.70;;;6.30;99.90;;;;;;4959276;28;20295;-94
2020/12/27 05:34:23;;;;;;;6.10;2.83;;;6.30;99.90;;;;;;5017432;23;20701;-93
2020/12/27 05:36:56;;;;;;;7.03;2.53;;;6.30;99.90;;;;;;4971110;28;20326;-94
2020/12/27 05:39:35;;;;;;;9.00;3.20;;;6.30;99.90;;;;;;4949133;29;20239;-94
2020/12/27 05:42:06;;;;;;;6.60;2.57;;;6.30;99.90;;;;;;4958156;28;20224;-96
2020/12/27 05:44:41;;;;;;;7.13;2.23;;;6.30;99.90;;;;;;4956727;28;20266;-96
2020/12/27 05:47:13;;;;;;;6.50;2.40;;;6.30;99.90;;;;;;4956927;28;20208;-94
2020/12/27 05:49:47;;;;;;;4.63;2.73;;;6.30;99.90;;;;;;4956998;28;20216;-96
2020/12/27 05:52:20;;;;;;;8.57;2.47;;;6.30;99.90;;;;;;4940732;29;20234;-96
2020/12/27 05:54:58;;;;;;;7.00;2.20;;;6.30;99.90;;;;;;4941830;28;20367;-95
2020/12/27 05:57:32;;;;;;;5.27;1.97;;;6.30;99.90;;;;;;4938441;28;20264;-95
2020/12/27 06:00:06;;;;;;;5.80;2.00;;;6.30;99.90;;;;;;4945278;29;20321;-96
2020/12/27 06:02:46;;;;;;;6.80;1.70;;;6.30;99.90;;;;;;4945602;29;20212;-96
2020/12/27 06:38:15;;;;;;;4.30;1.60;;;6.20;99.90;;;;;;4913446;29;20203;-96
2020/12/27 06:54:46;;;;;;;4.47;1.43;;;6.10;99.90;;;;;;4944121;29;20228;-96
2020/12/27 06:57:43;;;;;;;5.07;2.03;;;6.10;99.90;;;;;;4960307;23;20274;-96
2020/12/27 07:00:27;;;;;;;6.30;2.23;;;6.10;99.90;;;;;;4951566;29;20427;-96
2020/12/27 07:06:42;;;;;;;2.73;1.67;;;6.30;99.90;;;;;;4927222;29;20228;-96
2020/12/27 07:09:44;;;;;;;4.07;1.10;;;6.50;99.90;;;;;;4981196;23;21615;-96
2020/12/27 07:12:22;;;;;;;2.63;1.13;;;6.70;99.90;;;;;;4955991;28;20220;-96
2020/12/27 07:14:54;;;;;;;3.23;0.80;;;6.80;99.90;;;;;;4954532;29;20276;-96
2020/12/27 07:17:27;;;;;;;5.03;1.10;;;6.90;99.90;;;;;;4954782;29;20233;-97
2020/12/27 07:20:03;;;;;;;4.23;0.90;;;7.00;99.90;;;;;;4954570;28;20188;-95
2020/12/27 07:22:34;;;;;;;2.27;1.07;;;6.90;99.90;;;;;;4953940;29;20220;-96
2020/12/27 07:25:06;;;;;;;3.47;0.97;;;6.90;99.90;;;;;;4950597;28;20188;-96
2020/12/27 07:27:41;;;;;;;5.97;1.33;;;6.80;99.90;;;;;;4953204;28;20235;-96
2020/12/27 07:30:16;;;;;;;5.07;0.83;;;6.70;99.90;;;;;;4954980;29;20224;-96
2020/12/27 07:32:50;;;;;;;4.37;1.20;;;6.60;99.90;;;;;;4952941;28;20242;-95
2020/12/27 07:35:25;;;;;;;3.53;1.27;;;6.60;99.90;;;;;;4960518;28;20196;-96
2020/12/27 07:38:02;;;;;;;1.97;1.00;;;6.50;99.90;;;;;;4957113;28;20211;-96
2020/12/27 07:40:34;;;;;;;3.70;1.13;;;6.50;99.90;;;;;;4959824;28;20250;-96
2020/12/27 07:43:12;;;;;;;3.10;1.00;;;6.40;99.90;;;;;;4961419;28;20184;-96
2020/12/27 07:45:43;;;;;;;1.53;1.00;;;6.40;99.90;;;;;;4956311;29;20192;-96
2020/12/27 07:56:17;;;;;;;4.57;1.10;;;6.30;99.90;;;;;;5447082;23;20274;-96
2020/12/27 07:58:52;;;;;;;3.63;1.00;;;6.30;99.90;;;;;;4976885;28;20211;-97
2020/12/27 08:04:12;;;;;;;3.20;0.90;;;6.20;99.90;;;;;;5861265;23;20406;-96
2020/12/27 08:06:47;;;;;;;2.77;1.63;;;6.20;99.90;;;;;;5056263;23;20223;-97
2020/12/27 08:12:00;;;;;;;4.50;1.00;;;6.10;99.90;;;;;;5136046;23;20246;-96
2020/12/27 08:14:34;;;;;;;2.53;0.90;;;6.10;99.90;;;;;;4959623;28;20204;-96
2020/12/27 08:17:11;;;;;;;1.83;0.90;;;6.20;99.90;;;;;;4961104;28;20204;-96
2020/12/27 09:35:24;;;;;;;5.00;0.77;;;6.10;99.90;;;;;;4953118;28;20228;-96
2020/12/27 09:37:56;;;;;;;3.83;0.80;;;6.20;99.90;;;;;;4958736;29;20227;-96
2020/12/27 09:40:38;;;;;;;2.93;0.50;;;6.20;99.90;;;;;;4950349;28;20232;-96
2020/12/27 11:12:13;;;;;;;2.13;0.70;;;6.00;99.90;;;;;;4919510;29;20245;-97
2020/12/27 11:14:44;;;;;;;2.17;0.50;;;6.00;99.90;;;;;;4919638;29;20197;-96
2020/12/27 11:17:16;;;;;;;1.70;0.70;;;6.00;99.90;;;;;;4918001;29;20818;-96
2020/12/27 11:19:50;;;;;;;3.23;0.33;;;6.00;99.90;;;;;;4917128;29;20202;-96
2020/12/27 12:48:46;;;;;;;3.37;0.60;;;6.40;99.90;;;;;;5330035;23;20289;-96
2020/12/27 12:51:19;;;;;;;3.53;0.40;;;6.40;99.90;;;;;;4976300;28;20230;-96
2020/12/27 16:11:41;;;;;;;2.37;0.80;;;5.90;99.90;;;;;;5520300;23;20259;-96
2020/12/27 16:14:14;;;;;;;2.27;0.60;;;5.90;99.90;;;;;;4972450;28;20258;-96
2020/12/27 16:16:46;;;;;;;1.73;0.77;;;5.90;99.90;;;;;;4976682;28;20195;-96
2020/12/27 16:19:22;;;;;;;2.57;1.00;;;5.80;99.90;;;;;;4996260;28;20213;-96
2020/12/27 16:21:54;;;;;;;1.83;1.00;;;6.00;99.90;;;;;;4995502;28;20183;-96
2020/12/27 16:24:26;;;;;;;2.53;1.10;;;5.90;99.90;;;;;;4978347;28;20284;-96
2020/12/27 16:26:58;;;;;;;3.90;1.10;;;5.90;99.90;;;;;;4971834;28;20574;-96
2020/12/27 16:29:31;;;;;;;3.23;1.10;;;5.90;99.90;;;;;;4957753;29;20297;-96
2020/12/27 16:32:02;;;;;;;2.00;1.10;;;5.90;99.90;;;;;;4970890;28;20247;-96
2020/12/27 16:34:33;;;;;;;2.77;0.90;;;5.90;99.90;;;;;;5437425;23;20312;-96
2020/12/27 16:37:05;;;;;;;4.43;1.33;;;6.00;99.90;;;;;;4955578;29;20201;-96
2020/12/27 16:39:42;;;;;;;1.80;1.00;;;6.00;99.90;;;;;;4954782;29;20201;-96
2020/12/27 16:59:09;;;;;;;3.40;0.90;;;6.10;99.90;;;;;;5190833;23;9999941;-96
2020/12/27 17:02:06;;;;;;;2.47;0.90;;;6.10;99.90;;;;;;4943010;29;20213;-92
2020/12/27 17:04:51;;;;;;;3.20;1.20;;;6.10;99.90;;;;;;4955623;29;20236;-96
2020/12/27 17:07:33;;;;;;;3.23;1.20;;;6.00;99.90;;;;;;4955970;28;20252;-96
2020/12/27 17:10:04;;;;;;;5.27;1.47;;;6.10;99.90;;;;;;4956702;28;20191;-96
2020/12/27 17:12:38;;;;;;;3.90;1.50;;;6.10;99.90;;;;;;4964418;28;20227;-96
2020/12/27 17:15:25;;;;;;;3.83;1.83;;;6.10;99.90;;;;;;5142744;23;21728;-96
2020/12/27 17:20:44;;;;;;;4.00;1.70;;;6.20;99.90;;;;;;5559403;23;20256;-96
2020/12/27 17:23:22;;;;;;;4.37;1.53;;;6.20;99.90;;;;;;4952366;29;20200;-96
2020/12/27 17:26:03;;;;;;;3.07;1.30;;;6.20;99.90;;;;;;4953572;29;20209;-95
2020/12/27 17:28:35;;;;;;;5.57;1.70;;;6.20;99.90;;;;;;4950983;28;20248;-95
2020/12/27 17:31:05;;;;;;;4.40;1.60;;;6.20;99.90;;;;;;4949382;29;20199;-96
2020/12/27 17:33:39;;;;;;;3.43;1.53;;;6.20;99.90;;;;;;4948755;28;20232;-96
2020/12/27 17:36:14;;;;;;;4.60;1.90;;;6.20;99.90;;;;;;4947115;28;20202;-96
2020/12/27 17:38:50;;;;;;;4.77;1.67;;;6.20;99.90;;;;;;4945647;29;20203;-96
2020/12/27 17:41:28;;;;;;;5.07;2.30;;;6.30;99.90;;;;;;4953633;28;20208;-96
2020/12/27 17:44:01;;;;;;;6.30;2.23;;;6.30;99.90;;;;;;5033674;23;20236;-94
2020/12/27 17:46:33;;;;;;;6.53;1.83;;;6.40;99.90;;;;;;4950883;28;20265;-95
2020/12/27 17:49:05;;;;;;;7.67;1.80;;;6.40;99.90;;;;;;4967548;28;20236;-95
2020/12/27 17:51:42;;;;;;;6.43;1.90;;;6.40;99.90;;;;;;4957749;28;20212;-96
2020/12/27 17:54:17;;;;;;;6.37;1.73;;;6.50;99.90;;;;;;4943851;29;20200;-96
2020/12/27 18:02:18;;;;;;;6.03;1.60;;;6.60;99.90;;;;;;4934520;29;20216;-95
2020/12/27 18:04:51;;;;;;;3.83;1.40;;;6.70;99.90;;;;;;4930333;29;20239;-93
2020/12/27 18:07:26;;;;;;;3.70;1.40;;;6.70;99.90;;;;;;4925026;29;20201;-93
2020/12/27 18:09:56;;;;;;;1.80;1.13;;;6.80;99.90;;;;;;4921687;29;20240;-94
2020/12/27 18:12:28;;;;;;;3.70;1.50;;;6.90;99.90;;;;;;4924415;29;20230;-93
2020/12/27 18:15:00;;;;;;;4.63;1.70;;;6.90;99.90;;;;;;4924562;29;20204;-94
2020/12/27 18:17:31;;;;;;;6.40;1.40;;;7.00;99.90;;;;;;4924422;29;20236;-94
2020/12/27 18:20:01;;;;;;;3.27;2.00;;;7.00;99.90;;;;;;4925168;29;20191;-94
2020/12/27 18:22:33;;;;;;;3.57;1.90;;;7.00;99.90;;;;;;4919804;29;20256;-95
2020/12/27 18:25:04;;;;;;;4.80;1.73;;;7.00;99.90;;;;;;4924498;29;20220;-94
2020/12/27 18:27:35;;;;;;;2.90;1.77;;;7.00;99.90;;;;;;4932904;29;20209;-94
2020/12/27 18:30:06;;;;;;;7.07;2.20;;;7.00;99.90;;;;;;4923873;29;20205;-94
2020/12/27 18:32:39;;;;;;;2.97;1.63;;;7.10;99.90;;;;;;4926408;29;20256;-94
2020/12/27 18:35:10;;;;;;;2.57;1.63;;;7.10;99.90;;;;;;4924821;29;20237;-95
2020/12/27 18:37:43;;;;;;;3.27;2.30;;;7.10;99.90;;;;;;4912803;29;20256;-94
2020/12/27 18:40:19;;;;;;;5.33;2.70;;;7.10;99.90;;;;;;4923697;29;20211;-94
2020/12/27 18:42:53;;;;;;;3.80;1.70;;;7.10;99.90;;;;;;4926298;29;20233;-95
2020/12/27 18:45:28;;;;;;;3.23;1.50;;;7.20;99.90;;;;;;4928565;29;20216;-94
2020/12/27 18:48:13;;;;;;;4.07;1.60;;;7.20;99.90;;;;;;4928483;29;20285;-93
2020/12/27 18:50:47;;;;;;;3.10;1.20;;;7.20;99.90;;;;;;4928172;29;20206;-93
2020/12/27 18:53:22;;;;;;;2.53;1.30;;;7.20;99.90;;;;;;4927537;29;20246;-94
2020/12/27 18:55:55;;;;;;;4.07;1.60;;;7.20;99.90;;;;;;4923602;29;20230;-95
2020/12/27 18:58:28;;;;;;;4.57;1.63;;;7.20;99.90;;;;;;4928547;29;20205;-94
2020/12/27 19:01:01;;;;;;;3.73;1.80;;;7.30;99.90;;;;;;4929042;29;20201;-94
2020/12/27 19:03:33;;;;;;;2.43;1.67;;;7.30;99.90;;;;;;4927302;29;20217;-94
2020/12/27 19:06:14;;;;;;;6.33;2.10;;;7.40;99.90;;;;;;4935191;29;20212;-92
2020/12/27 19:08:51;;;;;;;4.47;1.60;;;7.40;99.90;;;;;;4931267;29;20193;-94
2020/12/27 19:11:22;;;;;;;4.47;1.70;;;7.40;99.90;;;;;;4933185;29;20201;-94
2020/12/27 19:13:53;;;;;;;4.17;1.90;;;7.50;99.90;;;;;;4932983;29;20229;-95
2020/12/27 19:16:37;;;;;;;2.40;1.80;;;7.40;99.90;;;;;;4931447;29;20197;-96
2020/12/27 19:19:10;;;;;;;2.57;1.53;;;7.40;99.90;;;;;;4933987;28;20227;-96
2020/12/27 19:21:42;;;;;;;3.53;2.10;;;7.40;99.90;;;;;;4929651;29;20204;-96
2020/12/27 19:24:17;;;;;;;4.63;2.40;;;7.40;99.90;;;;;;4924319;29;20207;-96
2020/12/27 19:26:52;;;;;;;4.93;2.27;;;7.30;99.90;;;;;;4930894;29;20219;-95
2020/12/27 19:29:29;;;;;;;4.10;1.90;;;7.30;99.90;;;;;;4931357;29;20203;-96
2020/12/27 19:32:01;;;;;;;5.90;2.53;;;7.30;99.90;;;;;;4931689;29;20207;-96
2020/12/27 19:34:32;;;;;;;3.33;1.60;;;7.40;99.90;;;;;;4925348;29;20223;-94
2020/12/27 19:37:03;;;;;;;2.87;1.07;;;7.30;99.90;;;;;;4930884;29;20215;-94
2020/12/27 19:42:24;;;;;;;1.93;0.67;;;7.40;99.90;;;;;;4926407;29;20201;-94
2020/12/27 19:45:21;;;;;;;2.13;0.80;;;7.40;99.90;;;;;;4931569;29;20211;-92
2020/12/27 19:48:00;;;;;;;2.40;1.10;;;7.50;99.90;;;;;;4926407;29;20220;-96
2020/12/27 19:50:33;;;;;;;3.80;1.50;;;7.60;99.90;;;;;;4930131;29;20208;-95
2020/12/27 19:53:07;;;;;;;5.17;1.97;;;7.80;99.90;;;;;;4930182;29;20264;-95
2020/12/27 19:55:41;;;;;;;4.57;1.87;;;8.00;99.90;;;;;;4930361;29;20211;-96
2020/12/27 19:58:23;;;;;;;2.93;1.43;;;8.30;99.90;;;;;;4931523;29;20234;-95
2020/12/27 20:00:57;;;;;;;1.83;1.10;;;8.30;99.90;;;;;;4930785;29;20245;-95
2020/12/27 20:03:29;;;;;;;3.93;2.27;;;8.40;99.90;;;;;;4930766;28;20208;-94
2020/12/27 20:06:00;;;;;;;3.33;1.70;;;8.30;99.90;;;;;;4929562;29;20609;-94
2020/12/27 20:08:31;;;;;;;5.27;2.60;;;8.20;99.90;;;;;;4929185;28;20240;-89
2020/12/27 20:11:06;;;;;;;5.90;2.30;;;8.10;99.90;;;;;;4925039;29;20205;-93
2020/12/27 20:13:38;;;;;;;3.93;1.53;;;8.10;99.90;;;;;;4931025;29;20264;-95
2020/12/27 20:16:11;;;;;;;9.30;5.33;;;8.00;99.90;;;;;;4935141;29;20197;-95
2020/12/27 20:31:59;;;;;;;3.53;1.60;;;7.60;99.90;;;;;;4925653;29;20301;-90
2020/12/27 20:34:29;;;;;;;2.03;1.00;;;7.50;99.90;;;;;;4927274;29;20201;-90
2020/12/27 20:37:01;;;;;;;4.17;2.20;;;7.60;99.90;;;;;;4930845;29;20220;-89
2020/12/27 20:39:33;;;;;;;3.00;1.63;;;7.50;99.90;;;;;;4929964;29;20647;-91
2020/12/27 20:42:04;;;;;;;3.87;2.00;;;7.50;99.90;;;;;;4930822;29;20213;-92
2020/12/27 20:44:35;;;;;;;1.30;1.20;;;7.50;99.90;;;;;;4931587;29;20216;-92
2020/12/27 20:47:07;;;;;;;1.30;0.80;;;7.60;99.90;;;;;;4933013;29;20231;-91
2020/12/27 20:49:38;;;;;;;2.33;1.30;;;7.60;99.90;;;;;;4941431;29;20306;-91
2020/12/27 20:52:08;;;;;;;3.23;1.70;;;7.70;99.90;;;;;;4950401;29;20214;-92
2020/12/27 20:54:39;;;;;;;3.23;1.93;;;7.80;99.90;;;;;;4938304;29;20199;-91
2020/12/27 20:57:09;;;;;;;3.03;1.27;;;7.90;99.90;;;;;;4935799;29;20200;-91
2020/12/27 20:59:41;;;;;;;4.30;1.60;;;8.20;99.90;;;;;;4911909;29;20268;-91
2020/12/27 21:02:12;;;;;;;2.03;1.20;;;8.30;99.90;;;;;;4922299;29;20209;-91
2020/12/27 21:04:43;;;;;;;4.43;1.53;;;8.40;99.90;;;;;;4931551;29;20233;-91
2020/12/27 21:07:14;;;;;;;4.37;1.77;;;8.50;99.90;;;;;;4936049;29;20661;-93
2020/12/27 21:09:44;;;;;;;3.30;1.50;;;8.50;99.90;;;;;;4932380;29;20606;-91
2020/12/27 21:12:15;;;;;;;4.40;2.17;;;8.50;99.90;;;;;;4932459;29;20205;-89
2020/12/27 21:14:46;;;;;;;3.50;1.90;;;8.60;99.90;;;;;;4930869;29;20318;-90
2020/12/27 21:17:18;;;;;;;2.57;1.67;;;8.50;99.90;;;;;;4930599;29;20217;-89
2020/12/27 21:19:52;;;;;;;2.57;1.33;;;8.60;99.90;;;;;;4928368;29;20213;-90
2020/12/27 21:22:22;;;;;;;1.63;1.30;;;8.60;99.90;;;;;;4930384;29;20201;-90
2020/12/27 21:24:53;;;;;;;1.60;1.43;;;8.70;99.90;;;;;;4929647;29;20209;-89
2020/12/27 21:27:23;;;;;;;3.77;1.70;;;8.70;99.90;;;;;;4927261;29;20264;-90
2020/12/27 21:29:54;;;;;;;2.73;1.80;;;8.70;99.90;;;;;;4929249;29;20211;-90
2020/12/27 21:32:27;;;;;;;2.53;1.50;;;8.70;99.90;;;;;;4929190;29;20341;-90
2020/12/27 21:34:57;;;;;;;2.43;1.33;;;8.70;99.90;;;;;;4929781;29;20200;-90
2020/12/27 21:37:28;;;;;;;2.33;1.40;;;8.70;99.90;;;;;;4929220;29;20235;-90
2020/12/27 21:39:58;;;;;;;4.37;1.70;;;8.70;99.90;;;;;;4929833;29;20208;-89
2020/12/27 21:42:30;;;;;;;1.90;1.40;;;8.70;99.90;;;;;;4920741;29;20234;-91
2020/12/27 21:45:00;;;;;;;1.73;1.03;;;8.70;99.90;;;;;;4913772;29;20216;-92
2020/12/27 21:47:32;;;;;;;2.67;1.10;;;8.60;99.90;;;;;;4911327;29;20214;-92
2020/12/27 21:50:02;;;;;;;2.77;1.33;;;8.60;99.90;;;;;;4914326;29;20209;-91
2020/12/27 21:52:32;;;;;;;1.63;1.10;;;8.50;99.90;;;;;;4930353;29;20257;-92
2020/12/27 21:55:04;;;;;;;2.17;0.90;;;8.50;99.90;;;;;;4929740;29;20227;-91
2020/12/27 21:57:35;;;;;;;2.77;1.20;;;8.40;99.90;;;;;;4939845;29;20208;-92
2020/12/27 22:00:05;;;;;;;2.20;1.30;;;8.30;99.90;;;;;;4937923;29;20221;-91
2020/12/27 22:02:38;;;;;;;1.27;0.97;;;8.30;99.90;;;;;;4933301;29;20237;-90
2020/12/27 22:05:09;;;;;;;2.57;1.17;;;8.20;99.90;;;;;;4931310;29;20189;-90
2020/12/27 22:07:39;;;;;;;7.37;2.33;;;8.20;99.90;;;;;;4929263;29;20231;-90
2020/12/27 22:10:10;;;;;;;6.67;2.43;;;8.10;99.90;;;;;;4926385;29;20212;-91
2020/12/27 22:12:40;;;;;;;5.73;1.50;;;8.10;99.90;;;;;;4930644;29;20259;-89
2020/12/27 22:15:31;;;;;;;4.27;1.80;;;8.10;99.90;;;;;;4926886;29;20213;-88
2020/12/27 22:18:02;;;;;;;5.83;1.57;;;8.10;99.90;;;;;;4925408;29;20216;-88
2020/12/27 22:20:33;;;;;;;4.93;2.00;;;8.10;99.90;;;;;;4926303;29;20236;-89
2020/12/27 22:23:03;;;;;;;4.80;2.20;;;8.10;99.90;;;;;;4927346;28;20728;-90
2020/12/27 22:25:35;;;;;;;2.87;1.60;;;8.20;99.90;;;;;;4926374;29;20211;-89
2020/12/27 22:28:05;;;;;;;2.63;1.23;;;8.30;99.90;;;;;;4920439;29;20246;-89
2020/12/27 22:30:35;;;;;;;2.67;1.43;;;8.50;99.90;;;;;;4906507;29;20625;-90
2020/12/27 22:33:06;;;;;;;2.97;1.70;;;8.50;99.90;;;;;;4919087;29;20227;-89
2020/12/27 22:35:36;;;;;;;2.03;1.40;;;8.60;99.90;;;;;;4926939;29;20216;-89
2020/12/27 22:38:07;;;;;;;2.07;1.30;;;8.60;99.90;;;;;;4923615;29;20272;-90
2020/12/27 22:40:37;;;;;;;2.80;1.50;;;8.70;99.90;;;;;;4926475;29;20253;-91
2020/12/27 22:43:08;;;;;;;2.77;1.47;;;8.80;99.90;;;;;;4926404;29;20290;-92
2020/12/27 22:45:38;;;;;;;3.63;1.60;;;8.90;99.90;;;;;;4910793;29;20216;-92
2020/12/27 22:48:10;;;;;;;2.67;1.50;;;8.80;99.90;;;;;;4913572;29;20225;-91
2020/12/27 22:50:42;;;;;;;2.17;1.60;;;8.70;99.90;;;;;;4915767;29;20200;-92
2020/12/27 22:53:16;;;;;;;6.43;2.30;;;8.60;99.90;;;;;;4932958;29;20290;-92
2020/12/27 22:55:46;;;;;;;3.73;2.03;;;8.80;99.90;;;;;;4936508;29;20233;-92
2020/12/27 22:58:18;;;;;;;2.83;1.87;;;8.80;99.90;;;;;;4937145;29;20232;-92
2020/12/27 23:00:49;;;;;;;3.27;1.90;;;8.90;99.90;;;;;;4938157;29;20224;-92
2020/12/27 23:03:22;;;;;;;2.70;1.50;;;8.90;99.90;;;;;;4937725;29;20301;-92
2020/12/27 23:05:53;;;;;;;2.23;1.60;;;8.90;99.90;;;;;;4936791;29;20209;-90
2020/12/27 23:08:24;;;;;;;2.90;1.60;;;8.90;99.90;;;;;;4935606;29;20253;-92
2020/12/27 23:10:55;;;;;;;2.10;1.40;;;8.90;99.90;;;;;;4937146;29;20208;-92
2020/12/27 23:13:26;;;;;;;3.93;1.60;;;8.90;99.90;;;;;;4937565;29;20220;-92
2020/12/27 23:15:57;;;;;;;3.63;1.70;;;9.00;99.90;;;;;;4937843;29;20217;-91
2020/12/27 23:18:32;;;;;;;1.90;1.57;;;9.00;99.90;;;;;;4935385;29;20203;-90
2020/12/27 23:21:03;;;;;;;3.23;2.00;;;9.00;99.90;;;;;;4936283;29;20215;-90
2020/12/27 23:23:34;;;;;;;5.03;1.90;;;9.00;99.90;;;;;;4934990;29;20219;-91
2020/12/27 23:26:04;;;;;;;3.13;1.97;;;9.00;99.90;;;;;;4942313;29;20205;-90
2020/12/27 23:28:34;;;;;;;2.90;2.00;;;9.00;99.90;;;;;;4947309;29;20216;-88
2020/12/27 23:31:05;;;;;;;3.80;1.90;;;8.90;99.90;;;;;;4935503;29;20209;-89
2020/12/27 23:33:36;;;;;;;2.73;2.00;;;8.80;99.90;;;;;;4935151;29;20229;-91
2020/12/27 23:36:08;;;;;;;4.43;2.00;;;8.70;99.90;;;;;;4935707;29;20196;-90
2020/12/27 23:38:39;;;;;;;4.83;1.90;;;8.50;99.90;;;;;;4936058;29;20211;-91
2020/12/27 23:41:10;;;;;;;3.27;2.30;;;8.50;99.90;;;;;;4936022;29;20243;-90
2020/12/27 23:43:40;;;;;;;3.63;2.33;;;8.30;99.90;;;;;;4937366;29;20298;-91
2020/12/27 23:46:11;;;;;;;5.63;2.73;;;8.20;99.90;;;;;;4938065;29;20199;-91
2020/12/27 23:48:43;;;;;;;6.07;2.60;;;8.00;99.90;;;;;;4937402;29;20207;-92
2020/12/27 23:51:13;;;;;;;6.10;3.00;;;7.90;99.90;;;;;;4937845;29;20227;-91
2020/12/27 23:53:44;;;;;;;4.30;2.20;;;7.80;99.90;;;;;;4938556;29;20228;-91
2020/12/27 23:56:15;;;;;;;4.03;2.30;;;7.80;99.90;;;;;;4921723;29;20225;-92
2020/12/27 23:58:46;;;;;;;3.90;2.53;;;7.80;99.90;;;;;;4918650;29;20198;-91
